Aviation Digital Data Service (ADDS)

Output produced by METARs form (1809 UTC 14 August 2018)
found at http://www.aviationweather.gov/adds/metars/
 
GOGS 141700Z 30004KT 9999 FEW015 31/23 Q1014
TAF COR GOGS 141730Z 1418/1518 33008KT 9999 SCT013 
     PROB40 
     TEMPO 1419/1423 4000 TSRA BKN013 FEW025CB
       
GOBD 141800Z 32013KT 9999 FEW020 28/20 Q1014 NOSIG
TAF COR GOBD 141730Z 1418/1524 31008KT 9999 SCT013
       
GOGG 141700Z 24006KT 9999 BKN020TCU 32/24 Q1014
GOGK 141500Z 04004KT 9999 BKN020TCU 32/23 Q1014
GOGS 141700Z 30004KT 9999 FEW015 31/23 Q1014
TAF COR GOGS 141730Z 1418/1518 33008KT 9999 SCT013 
     PROB40 
     TEMPO 1419/1423 4000 TSRA BKN013 FEW025CB
       
GOOD 141500Z 00000KT 9999 BKN015 34/20 Q1015
GOOG 141500Z 18003KT 9999 FEW020 SCT120 36/20 Q////
GOOK 141500Z 00000KT 9999 SCT013 34/20 Q1016
GOOY 141700Z 30008KT 9999 FEW015 29/22 Q1015
TAF COR GOOY 141730Z 1418/1524 31008KT 9999 SCT013
       
GOSM 141500Z 00000KT 9999 FEW020 BKN230 36/22 Q1014
GOSP 141700Z 24002KT CAVOK 37/20 Q1013
GOSS 141700Z 28006KT CAVOK 30/21 Q1014
TAF COR GOSS 141730Z 1418/1518 30008KT 9999 SCT012
       
GOTK 141500Z 20006KT 9999 FEW015 SCT130 29/23 Q1015
GOTT 141600Z 32004KT 270V350 9999 SCT013 BKN130 31/24 Q1013
GOOK 141500Z 00000KT 9999 SCT013 34/20 Q1016
GOTK 141500Z 20006KT 9999 FEW015 SCT130 29/23 Q1015
GOOY 141700Z 30008KT 9999 FEW015 29/22 Q1015
TAF COR GOOY 141730Z 1418/1524 31008KT 9999 SCT013
       
GOSS 141700Z 28006KT CAVOK 30/21 Q1014
TAF COR GOSS 141730Z 1418/1518 30008KT 9999 SCT012
       
GOTT 141600Z 32004KT 270V350 9999 SCT013 BKN130 31/24 Q1013
GOGG 141700Z 24006KT 9999 BKN020TCU 32/24 Q1014